WFB weather

Public forecast

Using degrees Fahrenheit for public forecast. Weather courtesy of forecast.io.

Closest aviation weather report (METAR) to Ketchikan Harbor Seaplane Base

Closest report is Ketchikan International Airport, 1.3 nm (2.4 km) WNW. Retrieved 2020/08/14 01:53 UTC (9 minutes ago):

PAKT 140153Z 14009KT 2SM -RA BR SCT005 BKN009 OVC019 12/12 A3011

Closest aviation forecast (TAF) to Ketchikan Harbor Seaplane Base

Closest forecast is Ketchikan International Airport, 1.3 nm (2.4 km) WNW. Retrieved 2020-08-14 00:40 UTC (1 hour ago):

TAF PAKT 132337Z 1400/1424 14008KT P6SM VCSH SCT025 OVC050 FM140500 14008KT 4SM -RA SCT007 OVC012 FM141200 14012G20KT 2SM -RA BR SCT005 OVC007 FM142100 14011KT 3SM -RA BR SCT007 OVC015 AMD LTD TO CLD VIS AND WIND 1406/1415